createdAt,value
2018-01-06T00:00:02.830Z,7.80
2018-01-06T00:02:29.477Z,7.70
2018-01-06T00:04:56.719Z,7.60
2018-01-06T00:07:24.395Z,7.30
2018-01-06T00:09:51.264Z,6.87
2018-01-06T00:12:18.178Z,13.80
2018-01-06T00:14:45.101Z,7.55
2018-01-06T00:17:11.986Z,6.55
2018-01-06T00:19:38.865Z,6.60
2018-01-06T00:22:05.742Z,6.93
2018-01-06T00:24:33.365Z,6.80
2018-01-06T00:27:00.273Z,6.62
2018-01-06T00:29:27.402Z,6.82
2018-01-06T00:31:54.555Z,6.80
2018-01-06T00:34:21.706Z,6.78
2018-01-06T00:36:48.638Z,6.68
2018-01-06T00:39:15.590Z,7.20
2018-01-06T00:41:42.740Z,6.40
2018-01-06T00:44:09.897Z,7.30
2018-01-06T00:46:36.760Z,7.43
2018-01-06T00:49:03.646Z,7.10
2018-01-06T00:51:30.545Z,7.70
2018-01-06T00:53:57.400Z,7.50
2018-01-06T00:56:24.324Z,7.12
2018-01-06T00:58:51.230Z,7.55
2018-01-06T01:01:18.508Z,8.23
2018-01-06T01:03:45.666Z,7.25
2018-01-06T01:06:12.813Z,8.15
2018-01-06T01:08:39.695Z,7.20
2018-01-06T01:11:06.914Z,7.50
2018-01-06T01:13:34.058Z,6.90
2018-01-06T01:16:01.208Z,7.07
2018-01-06T01:18:28.466Z,8.45
2018-01-06T01:20:55.360Z,8.27
2018-01-06T01:23:22.224Z,8.00
2018-01-06T01:25:49.405Z,7.93
2018-01-06T01:28:16.264Z,9.00
2018-01-06T01:30:43.210Z,8.48
2018-01-06T01:33:10.073Z,7.72
2018-01-06T01:35:37.293Z,7.80
2018-01-06T01:38:04.436Z,8.40
2018-01-06T01:40:31.354Z,8.60
2018-01-06T01:42:59.254Z,8.40
2018-01-06T01:45:26.181Z,9.17
2018-01-06T01:47:53.040Z,8.20
2018-01-06T01:50:20.132Z,9.25
2018-01-06T01:52:47.342Z,8.80
2018-01-06T01:55:14.218Z,9.50
2018-01-06T01:57:41.148Z,9.85
2018-01-06T02:00:08.033Z,9.40
2018-01-06T02:02:34.936Z,9.38
2018-01-06T02:05:01.818Z,9.55
2018-01-06T02:07:28.696Z,10.00
2018-01-06T02:09:55.591Z,9.50
2018-01-06T02:12:22.478Z,10.23
2018-01-06T02:14:49.749Z,9.50
2018-01-06T02:17:16.675Z,10.35
2018-01-06T02:19:43.610Z,11.00
2018-01-06T02:22:10.489Z,10.65
2018-01-06T02:24:37.628Z,11.63
2018-01-06T02:27:04.528Z,11.55
2018-01-06T02:29:31.421Z,10.88
2018-01-06T02:31:58.297Z,11.50
2018-01-06T02:34:25.524Z,10.52
2018-01-06T02:36:52.388Z,11.38
2018-01-06T02:39:19.260Z,10.90
2018-01-06T02:41:46.457Z,10.40
2018-01-06T02:44:13.346Z,10.20
2018-01-06T02:46:40.657Z,10.67
2018-01-06T02:49:07.804Z,10.20
2018-01-06T02:51:34.715Z,10.57
2018-01-06T02:54:01.905Z,10.20
2018-01-06T02:56:29.160Z,10.02
2018-01-06T02:58:56.050Z,9.65
2018-01-06T03:01:22.989Z,9.52
2018-01-06T03:03:50.198Z,9.35
2018-01-06T03:06:17.100Z,9.20
2018-01-06T03:08:44.422Z,8.65
2018-01-06T03:11:11.276Z,9.18
2018-01-06T03:13:38.137Z,9.02
2018-01-06T03:16:05.005Z,8.43
2018-01-06T03:18:32.183Z,8.13
2018-01-06T03:20:59.349Z,8.77
2018-01-06T03:23:26.225Z,8.60
2018-01-06T03:25:53.117Z,9.20
2018-01-06T03:28:20.197Z,8.67
2018-01-06T03:30:47.098Z,8.55
2018-01-06T03:33:14.262Z,8.50
2018-01-06T03:35:41.167Z,9.20
2018-01-06T03:38:08.025Z,8.95
2018-01-06T03:40:34.881Z,9.10
2018-01-06T03:43:02.005Z,10.70
2018-01-06T03:45:28.925Z,10.50
2018-01-06T03:47:56.141Z,10.00
2018-01-06T03:50:23.013Z,10.13
2018-01-06T03:52:49.876Z,11.40
2018-01-06T03:55:16.744Z,10.13
2018-01-06T03:57:43.605Z,10.95
2018-01-06T04:00:10.526Z,10.90
2018-01-06T04:02:37.435Z,9.50
2018-01-06T04:05:05.170Z,10.38
2018-01-06T04:07:32.312Z,10.80
2018-01-06T04:09:59.201Z,10.90
2018-01-06T04:12:26.414Z,11.32
2018-01-06T04:14:53.329Z,11.27
2018-01-06T04:17:20.504Z,11.02
2018-01-06T04:19:47.386Z,11.20
2018-01-06T04:22:14.522Z,11.60
2018-01-06T04:24:41.757Z,9.80
2018-01-06T04:27:08.640Z,11.20
2018-01-06T04:29:35.489Z,10.20
2018-01-06T04:32:02.374Z,10.68
2018-01-06T04:34:30.362Z,11.90
2018-01-06T04:36:57.233Z,11.12
2018-01-06T04:39:24.126Z,11.75
2018-01-06T04:41:51.306Z,11.45
2018-01-06T04:44:18.445Z,11.20
2018-01-06T04:46:45.701Z,11.55
2018-01-06T04:49:12.954Z,10.57
2018-01-06T04:51:39.850Z,11.60
2018-01-06T04:54:06.737Z,11.35
2018-01-06T04:56:33.890Z,11.70
2018-01-06T04:59:00.810Z,12.20
2018-01-06T05:01:27.960Z,11.45
2018-01-06T05:03:55.237Z,10.95
2018-01-06T05:06:22.133Z,11.55
2018-01-06T05:08:49.262Z,11.50
2018-01-06T05:11:16.154Z,11.20
2018-01-06T05:13:43.045Z,11.50
2018-01-06T05:16:09.908Z,10.77
2018-01-06T05:18:36.784Z,10.57
2018-01-06T05:21:03.645Z,10.20
2018-01-06T05:23:30.804Z,10.80
2018-01-06T05:25:57.668Z,11.02
2018-01-06T05:28:24.545Z,10.82
2018-01-06T05:30:51.422Z,10.80
2018-01-06T05:33:18.591Z,11.68
2018-01-06T05:35:45.843Z,12.10
2018-01-06T05:38:12.724Z,11.07
2018-01-06T05:40:39.571Z,11.20
2018-01-06T05:43:06.420Z,10.93
2018-01-06T05:45:33.325Z,11.32
2018-01-06T05:48:00.241Z,11.70
2018-01-06T05:50:27.129Z,10.75
2018-01-06T05:52:54.014Z,11.60
2018-01-06T05:55:20.914Z,11.85
2018-01-06T05:57:48.043Z,11.05
2018-01-06T06:00:14.929Z,11.05
2018-01-06T06:02:41.837Z,12.20
2018-01-06T06:05:08.696Z,11.32
2018-01-06T06:07:35.622Z,11.60
2018-01-06T06:10:02.796Z,12.00
2018-01-06T06:12:29.686Z,12.60
2018-01-06T06:14:56.625Z,12.10
2018-01-06T06:17:23.562Z,12.85
2018-01-06T06:19:50.461Z,12.40
2018-01-06T06:22:17.390Z,12.37
2018-01-06T06:24:44.246Z,12.77
2018-01-06T06:27:11.107Z,13.27
2018-01-06T06:29:37.972Z,13.20
2018-01-06T06:32:04.886Z,14.18
2018-01-06T06:34:31.769Z,14.20
2018-01-06T06:36:58.629Z,12.65
2018-01-06T06:39:25.526Z,12.52
2018-01-06T06:41:52.443Z,12.85
2018-01-06T06:44:19.596Z,12.65
2018-01-06T06:46:46.448Z,12.30
2018-01-06T06:49:13.594Z,11.20
2018-01-06T06:51:40.522Z,11.77
2018-01-06T06:54:07.685Z,11.60
2018-01-06T06:56:34.606Z,11.98
2018-01-06T06:59:01.600Z,12.45
2018-01-06T07:01:28.648Z,11.77
2018-01-06T07:03:55.569Z,12.40
2018-01-06T07:06:22.462Z,11.95
2018-01-06T07:08:49.670Z,11.30
2018-01-06T07:11:16.562Z,12.13
2018-01-06T07:13:43.473Z,12.10
2018-01-06T07:16:10.375Z,12.55
2018-01-06T07:18:38.171Z,11.88
2018-01-06T07:21:05.052Z,11.63
2018-01-06T07:23:31.929Z,12.43
2018-01-06T07:25:59.278Z,12.57
2018-01-06T07:28:26.460Z,12.00
2018-01-06T07:30:53.608Z,11.23
2018-01-06T07:33:20.766Z,11.63
2018-01-06T07:35:47.918Z,12.10
2018-01-06T07:38:14.792Z,11.48
2018-01-06T07:40:42.012Z,11.60
2018-01-06T07:43:09.156Z,12.02
2018-01-06T07:45:36.307Z,13.10
2018-01-06T07:48:03.205Z,13.25
2018-01-06T07:50:30.392Z,13.97
2018-01-06T07:52:57.314Z,13.43
2018-01-06T07:55:24.192Z,13.50
2018-01-06T07:57:51.090Z,12.93
2018-01-06T08:00:18.340Z,13.68
2018-01-06T08:02:45.545Z,13.85
2018-01-06T08:05:12.437Z,13.23
2018-01-06T08:07:39.301Z,13.10
2018-01-06T08:10:06.516Z,12.57
2018-01-06T08:12:33.632Z,12.50
2018-01-06T08:15:00.538Z,12.15
2018-01-06T08:17:27.406Z,12.05
2018-01-06T08:19:54.573Z,13.25
2018-01-06T08:22:21.730Z,12.57
2018-01-06T08:24:48.867Z,12.20
2018-01-06T08:27:15.752Z,13.10
2018-01-06T08:29:42.972Z,13.82
2018-01-06T08:32:09.866Z,13.65
2018-01-06T08:34:37.063Z,13.62
2018-01-06T08:37:03.918Z,13.80
2018-01-06T08:39:31.170Z,13.05
2018-01-06T08:41:58.310Z,14.10
2018-01-06T08:44:25.197Z,14.40
2018-01-06T08:46:52.410Z,13.02
2018-01-06T08:49:19.662Z,13.95
2018-01-06T08:51:46.527Z,13.70
2018-01-06T08:54:13.464Z,12.90
2018-01-06T08:56:40.357Z,12.55
2018-01-06T08:59:07.261Z,12.25
2018-01-06T09:01:34.117Z,13.00
2018-01-06T09:04:01.010Z,12.05
2018-01-06T09:06:27.877Z,12.90
2018-01-06T09:08:54.739Z,12.63
2018-01-06T09:11:21.966Z,12.70
2018-01-06T09:13:48.862Z,12.50
2018-01-06T09:16:15.756Z,13.02
2018-01-06T09:18:42.628Z,12.27
2018-01-06T09:21:09.522Z,12.48
2018-01-06T09:23:36.694Z,12.37
2018-01-06T09:26:03.593Z,12.23
2018-01-06T09:28:30.493Z,12.00
2018-01-06T09:30:57.365Z,13.20
2018-01-06T09:33:24.254Z,13.35
2018-01-06T09:35:51.769Z,12.70
2018-01-06T09:38:18.982Z,13.15
2018-01-06T09:40:45.858Z,14.00
2018-01-06T09:43:13.077Z,12.32
2018-01-06T09:45:40.230Z,12.70
2018-01-06T09:48:07.121Z,12.23
2018-01-06T09:50:33.996Z,12.10
2018-01-06T09:53:00.840Z,12.60
2018-01-06T09:55:27.736Z,13.50
2018-01-06T09:57:54.649Z,12.98
2018-01-06T10:00:21.551Z,12.90
2018-01-06T10:02:48.748Z,13.70
2018-01-06T10:05:15.755Z,12.60
2018-01-06T10:07:42.665Z,12.90
2018-01-06T10:10:09.569Z,12.15
2018-01-06T10:12:36.492Z,12.63
2018-01-06T10:15:03.394Z,13.65
2018-01-06T10:17:30.616Z,13.13
2018-01-06T10:19:57.978Z,13.60
2018-01-06T10:22:25.123Z,12.90
2018-01-06T10:24:52.043Z,13.00
2018-01-06T10:27:19.005Z,12.73
2018-01-06T10:29:46.032Z,14.83
2018-01-06T10:32:12.946Z,13.50
2018-01-06T10:34:39.814Z,13.17
2018-01-06T10:37:06.693Z,14.53
2018-01-06T10:39:33.581Z,13.50
2018-01-06T10:42:00.691Z,14.45
2018-01-06T10:44:27.581Z,13.97
2018-01-06T10:46:54.452Z,13.33
2018-01-06T10:49:21.358Z,13.25
2018-01-06T10:51:48.502Z,13.60
2018-01-06T10:54:15.364Z,14.20
2018-01-06T10:56:42.240Z,13.80
2018-01-06T10:59:09.412Z,14.23
2018-01-06T11:01:36.280Z,13.65
2018-01-06T11:04:03.410Z,12.87
2018-01-06T11:06:30.544Z,13.40
2018-01-06T11:08:57.481Z,15.10
2018-01-06T11:11:24.516Z,15.15
2018-01-06T11:13:51.393Z,13.98
2018-01-06T11:16:18.543Z,14.45
2018-01-06T11:18:45.753Z,13.48
2018-01-06T11:21:12.592Z,14.40
2018-01-06T11:23:39.473Z,14.32
2018-01-06T11:26:06.329Z,14.82
2018-01-06T11:28:33.237Z,14.57
2018-01-06T11:31:00.420Z,14.00
2018-01-06T11:33:27.578Z,14.32
2018-01-06T11:35:54.451Z,16.35
2018-01-06T11:38:21.350Z,14.67
2018-01-06T11:40:48.618Z,14.63
2018-01-06T11:43:15.760Z,15.00
2018-01-06T11:45:42.664Z,15.77
2018-01-06T11:48:09.862Z,15.45
2018-01-06T11:50:37.008Z,14.40
2018-01-06T11:53:04.165Z,14.60
2018-01-06T11:55:31.041Z,15.00
2018-01-06T11:57:57.912Z,14.90
2018-01-06T12:00:24.773Z,16.10
2018-01-06T12:02:51.666Z,18.23
2018-01-06T12:05:18.890Z,15.13
2018-01-06T12:07:46.036Z,14.60
2018-01-06T12:10:13.188Z,15.57
2018-01-06T12:12:40.085Z,14.65
2018-01-06T12:15:07.347Z,15.10
2018-01-06T12:17:34.220Z,15.23
2018-01-06T12:20:01.385Z,15.40
2018-01-06T12:22:28.267Z,16.43
2018-01-06T12:24:55.476Z,15.37
2018-01-06T12:27:22.733Z,15.00
2018-01-06T12:29:49.629Z,15.27
2018-01-06T12:32:16.498Z,15.63
2018-01-06T12:34:43.670Z,16.05
2018-01-06T12:37:10.558Z,15.35
2018-01-06T12:39:37.769Z,15.95
2018-01-06T12:42:04.652Z,15.50
2018-01-06T12:44:31.866Z,15.73
2018-01-06T12:46:58.732Z,15.88
2018-01-06T12:49:25.870Z,17.40
2018-01-06T12:51:53.106Z,15.65
2018-01-06T12:54:20.256Z,15.60
2018-01-06T12:56:47.195Z,15.10
2018-01-06T12:59:14.087Z,16.08
2018-01-06T13:01:41.300Z,16.62
2018-01-06T13:04:08.202Z,16.70
2018-01-06T13:06:35.089Z,16.30
2018-01-06T13:09:02.125Z,17.60
2018-01-06T13:11:29.074Z,17.58
2018-01-06T13:13:55.962Z,17.65
2018-01-06T13:16:23.073Z,17.10
2018-01-06T13:18:49.978Z,17.80
2018-01-06T13:21:16.865Z,17.83
2018-01-06T13:23:43.749Z,17.48
2018-01-06T13:26:10.626Z,18.45
2018-01-06T13:28:37.514Z,19.80
2018-01-06T13:31:04.434Z,19.87
2018-01-06T13:33:31.320Z,19.80
2018-01-06T13:35:58.203Z,20.30
2018-01-06T13:38:25.085Z,20.12
2018-01-06T13:40:51.997Z,20.20
2018-01-06T13:43:18.962Z,23.70
2018-01-06T13:45:45.874Z,27.52
2018-01-06T13:48:13.061Z,25.62
2018-01-06T13:50:39.916Z,22.52
2018-01-06T13:53:06.801Z,20.27
2018-01-06T13:55:33.977Z,21.00
2018-01-06T13:58:00.875Z,21.40
2018-01-06T14:00:27.758Z,21.75
2018-01-06T14:02:54.660Z,21.95
2018-01-06T14:05:21.784Z,21.55
2018-01-06T14:07:48.936Z,21.67
2018-01-06T14:10:15.850Z,20.75
2018-01-06T14:12:43.024Z,23.10
2018-01-06T14:15:09.892Z,20.80
2018-01-06T14:17:36.806Z,21.90
2018-01-06T14:20:03.666Z,21.10
2018-01-06T14:22:30.596Z,20.83
2018-01-06T14:24:57.510Z,20.80
2018-01-06T14:27:24.384Z,20.58
2018-01-06T14:29:51.481Z,20.10
2018-01-06T14:32:18.400Z,20.40
2018-01-06T14:34:45.282Z,19.20
2018-01-06T14:37:12.145Z,23.75
2018-01-06T14:39:39.022Z,21.02
2018-01-06T14:42:05.960Z,19.27
2018-01-06T14:44:33.111Z,19.10
2018-01-06T14:46:59.992Z,9.35
2018-01-06T14:49:26.887Z,6.10
2018-01-06T14:51:53.774Z,4.57
2018-01-06T14:54:20.705Z,7.72
2018-01-06T14:56:47.610Z,3.53
2018-01-06T14:59:14.498Z,3.05
2018-01-06T15:01:41.415Z,3.20
2018-01-06T15:04:08.309Z,3.20
2018-01-06T15:06:35.168Z,3.20
2018-01-06T15:09:02.366Z,3.33
2018-01-06T15:11:29.512Z,4.10
2018-01-06T15:13:56.353Z,3.80
2018-01-06T15:16:23.266Z,4.07
2018-01-06T15:18:50.121Z,4.45
2018-01-06T15:21:17.011Z,4.78
2018-01-06T15:23:43.929Z,4.00
2018-01-06T15:26:11.085Z,3.45
2018-01-06T15:28:38.232Z,3.53
2018-01-06T15:31:05.150Z,3.73
2018-01-06T15:33:32.004Z,4.13
2018-01-06T15:35:58.885Z,3.10
2018-01-06T15:38:26.019Z,3.30
2018-01-06T15:40:52.886Z,3.05
2018-01-06T15:43:19.748Z,3.00
2018-01-06T15:45:46.653Z,3.80
2018-01-06T15:48:13.501Z,3.78
2018-01-06T15:50:40.349Z,3.60
2018-01-06T15:53:07.485Z,3.27
2018-01-06T15:55:34.336Z,3.10
2018-01-06T15:58:01.188Z,2.78
2018-01-06T16:00:28.057Z,3.10
2018-01-06T16:02:54.957Z,2.80
2018-01-06T16:05:22.114Z,3.10
2018-01-06T16:07:49.001Z,3.37
2018-01-06T16:10:16.204Z,2.90
2018-01-06T16:12:43.366Z,3.00
2018-01-06T16:15:10.248Z,2.70
2018-01-06T16:17:37.122Z,2.47
2018-01-06T16:20:03.980Z,3.10
2018-01-06T16:22:31.146Z,3.40
2018-01-06T16:24:58.054Z,2.80
2018-01-06T16:27:24.893Z,3.20
2018-01-06T16:29:51.748Z,3.00
2018-01-06T16:32:18.588Z,3.40
2018-01-06T16:34:45.767Z,3.53
2018-01-06T16:37:12.639Z,3.60
2018-01-06T16:39:39.481Z,3.70
2018-01-06T16:42:06.337Z,3.50
2018-01-06T16:44:36.041Z,3.67
2018-01-06T16:47:02.901Z,3.30
2018-01-06T16:49:29.765Z,3.10
2018-01-06T16:51:56.958Z,3.28
2018-01-06T16:54:25.345Z,3.42
2018-01-06T16:56:52.345Z,3.00
2018-01-06T16:59:19.229Z,3.20
2018-01-06T17:01:46.097Z,3.10
2018-01-06T17:04:12.990Z,3.00
2018-01-06T17:06:39.872Z,3.22
2018-01-06T17:09:07.375Z,3.55
2018-01-06T17:11:34.481Z,3.43
2018-01-06T17:14:01.778Z,4.00
2018-01-06T17:16:28.841Z,4.20
2018-01-06T17:18:55.721Z,6.72
2018-01-06T17:21:22.852Z,7.05
2018-01-06T17:23:49.724Z,6.10
2018-01-06T17:26:16.949Z,13.82
2018-01-06T17:28:43.832Z,6.60
2018-01-06T17:31:10.730Z,4.57
2018-01-06T17:33:37.628Z,4.50
2018-01-06T17:36:04.508Z,3.90
2018-01-06T17:38:31.438Z,3.47
2018-01-06T17:40:58.623Z,3.60
2018-01-06T17:43:25.768Z,3.40
2018-01-06T17:45:52.646Z,3.80
2018-01-06T17:48:19.555Z,3.65
2018-01-06T17:50:46.458Z,3.40
2018-01-06T17:53:13.314Z,3.53
2018-01-06T17:55:40.510Z,3.10
2018-01-06T17:58:07.413Z,3.50
2018-01-06T18:00:34.308Z,3.65
2018-01-06T18:03:01.438Z,3.95
2018-01-06T18:05:28.588Z,4.20
2018-01-06T18:07:55.432Z,4.65
2018-01-06T18:10:22.308Z,4.62
2018-01-06T18:12:49.545Z,4.40
2018-01-06T18:15:16.398Z,4.40
2018-01-06T18:17:43.316Z,4.20
2018-01-06T18:20:10.578Z,3.50
2018-01-06T18:22:37.593Z,3.50
2018-01-06T18:25:04.381Z,3.60
2018-01-06T18:27:31.274Z,4.07
2018-01-06T18:29:58.146Z,4.20
2018-01-06T18:32:25.022Z,4.00
2018-01-06T18:34:51.914Z,4.33
2018-01-06T18:37:19.415Z,4.00
2018-01-06T18:39:46.316Z,3.90
2018-01-06T18:42:13.214Z,3.50
2018-01-06T18:44:40.114Z,3.70
2018-01-06T18:47:06.992Z,3.90
2018-01-06T18:49:33.914Z,3.83
2018-01-06T18:52:01.200Z,3.10
2018-01-06T18:54:28.064Z,4.37
2018-01-06T18:56:55.028Z,3.70
2018-01-06T18:59:21.916Z,3.53
2018-01-06T19:01:48.773Z,3.30
2018-01-06T19:04:15.670Z,3.10
2018-01-06T19:06:42.567Z,3.30
2018-01-06T19:09:09.681Z,3.30
2018-01-06T19:11:36.558Z,3.58
2018-01-06T19:14:03.438Z,3.15
2018-01-06T19:16:30.324Z,3.10
2018-01-06T19:18:57.232Z,3.83
2018-01-06T19:21:24.417Z,3.35
2018-01-06T19:23:51.302Z,3.50
2018-01-06T19:26:24.493Z,3.33
2018-01-06T19:28:57.165Z,3.58
2018-01-06T19:31:24.514Z,3.58
2018-01-06T19:33:51.382Z,3.60
2018-01-06T19:36:18.228Z,3.90
2018-01-06T19:38:45.093Z,3.67
2018-01-06T19:41:11.949Z,4.50
2018-01-06T19:43:38.800Z,4.40
2018-01-06T19:46:05.733Z,4.78
2018-01-06T19:48:32.622Z,5.82
2018-01-06T19:50:59.850Z,5.20
2018-01-06T19:53:26.762Z,4.67
2018-01-06T19:55:53.748Z,4.20
2018-01-06T19:58:20.596Z,3.90
2018-01-06T20:00:47.464Z,3.50
2018-01-06T20:03:14.677Z,4.00
2018-01-06T20:05:41.536Z,3.60
2018-01-06T20:08:08.432Z,2.90
2018-01-06T20:10:35.284Z,2.92
2018-01-06T20:13:02.159Z,2.60
2018-01-06T20:15:29.056Z,2.67
2018-01-06T20:17:56.247Z,2.58
2018-01-06T20:20:23.134Z,2.80
2018-01-06T20:22:50.046Z,2.30
2018-01-06T20:25:16.942Z,2.17
2018-01-06T20:27:43.800Z,2.30
2018-01-06T20:30:11.061Z,2.22
2018-01-06T20:32:37.922Z,2.55
2018-01-06T20:35:04.780Z,2.42
2018-01-06T20:37:31.641Z,3.20
2018-01-06T20:39:58.544Z,2.25
2018-01-06T20:42:25.700Z,1.80
2018-01-06T20:44:52.595Z,2.13
2018-01-06T20:47:19.497Z,1.70
2018-01-06T20:49:46.636Z,2.20
2018-01-06T20:52:13.796Z,1.25
2018-01-06T20:54:40.644Z,1.50
2018-01-06T20:57:07.501Z,1.20
2018-01-06T20:59:34.365Z,1.17
2018-01-06T21:02:01.204Z,2.50
2018-01-06T21:04:28.094Z,2.50
2018-01-06T21:06:54.961Z,2.90
2018-01-06T21:09:21.796Z,1.62
2018-01-06T21:11:48.695Z,1.40
2018-01-06T21:14:15.595Z,1.10
2018-01-06T21:16:42.482Z,2.00
2018-01-06T21:19:09.386Z,1.70
2018-01-06T21:21:36.290Z,1.80
2018-01-06T21:24:03.258Z,1.10
2018-01-06T21:26:30.138Z,1.40
2018-01-06T21:28:57.089Z,1.20
2018-01-06T21:31:23.938Z,1.00
2018-01-06T21:33:50.822Z,1.20
2018-01-06T21:36:17.765Z,1.10
2018-01-06T21:38:44.622Z,1.20
2018-01-06T21:41:11.468Z,1.70
2018-01-06T21:43:38.354Z,1.40
2018-01-06T21:46:05.282Z,1.50
2018-01-06T21:48:32.214Z,2.63
2018-01-06T21:50:59.357Z,1.80
2018-01-06T21:53:26.221Z,1.70
2018-01-06T21:55:53.076Z,1.50
2018-01-06T21:58:19.944Z,1.65
2018-01-06T22:00:46.822Z,1.70
2018-01-06T22:03:13.850Z,1.15
2018-01-06T22:05:40.728Z,1.70
2018-01-06T22:08:07.871Z,1.67
2018-01-06T22:10:34.728Z,2.70
2018-01-06T22:13:01.632Z,1.62
2018-01-06T22:15:28.492Z,1.60
2018-01-06T22:17:55.332Z,1.58
2018-01-06T22:20:22.233Z,1.58
2018-01-06T22:22:49.518Z,1.70
2018-01-06T22:25:16.704Z,2.33
2018-01-06T22:27:43.609Z,1.90
2018-01-06T22:30:10.460Z,1.57
2018-01-06T22:32:37.300Z,1.63
2018-01-06T22:35:04.165Z,1.08
2018-01-06T22:37:31.675Z,1.00
2018-01-06T22:39:58.777Z,0.90
2018-01-06T22:42:25.928Z,0.80
2018-01-06T22:44:52.804Z,1.00
2018-01-06T22:47:20.030Z,0.80
2018-01-06T22:49:46.901Z,1.20
2018-01-06T22:52:14.021Z,0.70
2018-01-06T22:54:40.892Z,0.90
2018-01-06T22:57:07.806Z,1.12
2018-01-06T22:59:34.960Z,1.00
2018-01-06T23:02:01.808Z,0.90
2018-01-06T23:04:28.710Z,1.00
2018-01-06T23:06:55.896Z,1.00
2018-01-06T23:09:22.794Z,1.02
2018-01-06T23:11:49.669Z,1.10
2018-01-06T23:14:16.578Z,0.80
2018-01-06T23:16:43.449Z,0.98
2018-01-06T23:19:10.363Z,1.08
2018-01-06T23:21:37.225Z,1.30
2018-01-06T23:24:04.106Z,1.20
2018-01-06T23:26:31.262Z,0.80
2018-01-06T23:28:58.112Z,0.70
2018-01-06T23:31:24.996Z,0.90
2018-01-06T23:33:51.910Z,0.80
2018-01-06T23:36:19.070Z,0.98
2018-01-06T23:38:46.189Z,1.00
2018-01-06T23:41:13.068Z,0.80
2018-01-06T23:43:40.289Z,1.00
2018-01-06T23:46:07.179Z,0.88
2018-01-06T23:48:34.385Z,0.70
2018-01-06T23:51:01.249Z,0.90
2018-01-06T23:53:28.377Z,1.00
2018-01-06T23:55:55.315Z,0.90
2018-01-06T23:58:22.172Z,0.90
